Terminal Aerodrome Forecast
Issued by NWS Cleveland, OH

Home | Current Version | Previous Version | Graphics & Text | Print | Product List | Glossary Off
Versions: 1 2 3 4 5 6 7 8 9 10 11 12 13 14 15 16 17

192
FTUS41 KCLE 300259 AAA
TAFERI
TAF AMD
KERI 300259Z 3003/3024 06003KT 5SM BR SCT080 BKN150
      TEMPO 3009/3013 2SM HZ BKN015
     FM301400 12008KT P6SM SCT045 BKN120
     FM301800 06012KT P6SM VCTS BKN045CB=

USA.gov is the U.S. government's official web portal to all federal, state and local government web resources and services.